Time;durP1;ratioP1;P1;durP2;ratioP2;P2;SDS_P1;SDS_P2;PMS_P1;PMS_P2;Temp;Humidity;BMP_temperature;BMP_pressure;BME280_temperature;BME280_humidity;BME280_pressure;Samples;Min_cycle;Max_cycle;Signal;HPM_P1;HPM_P2
2022/02/27 00:02:00;;;;;;;13.57;6.00;;;;;0.80;102559.00;;;;10486566;28;20666;-78
2022/02/27 00:07:03;;;;;;;24.93;6.53;;;;;0.90;102565.00;;;;10441167;28;20227;-78
2022/02/27 00:12:05;;;;;;;17.10;6.13;;;;;0.90;102562.00;;;;10466267;28;20201;-78
2022/02/27 00:17:07;;;;;;;15.47;6.13;;;;;1.00;102555.00;;;;10432122;28;20208;-79
2022/02/27 00:22:09;;;;;;;16.43;5.90;;;;;1.00;102546.00;;;;10449842;28;20217;-79
2022/02/27 00:27:11;;;;;;;11.17;4.90;;;;;1.00;102551.00;;;;10435905;28;20209;-79
2022/02/27 00:32:13;;;;;;;14.47;5.03;;;;;0.90;102552.00;;;;10477830;28;20209;-78
2022/02/27 00:37:15;;;;;;;15.70;5.60;;;;;1.00;102551.00;;;;10497820;28;20639;-78
2022/02/27 00:42:17;;;;;;;13.43;5.47;;;;;0.90;102561.00;;;;10505057;28;20927;-78
2022/02/27 00:47:19;;;;;;;14.83;5.57;;;;;0.90;102559.00;;;;10504332;28;20311;-78
2022/02/27 00:52:25;;;;;;;10.87;4.60;;;;;0.80;102561.00;;;;10487871;28;20196;-79
2022/02/27 00:57:29;;;;;;;11.50;4.80;;;;;0.60;102562.00;;;;10467906;28;20280;-80
2022/02/27 01:02:31;;;;;;;6.67;3.87;;;;;0.50;102555.00;;;;10431792;28;20205;-80
2022/02/27 01:07:33;;;;;;;12.60;4.93;;;;;0.50;102545.00;;;;10457399;28;20264;-80
2022/02/27 01:12:35;;;;;;;12.87;4.87;;;;;0.50;102540.00;;;;10447437;28;20201;-80
2022/02/27 01:17:37;;;;;;;15.23;5.57;;;;;0.50;102542.00;;;;10453611;28;20196;-80
2022/02/27 01:22:39;;;;;;;14.73;5.03;;;;;0.40;102546.00;;;;10454499;28;20849;-80
2022/02/27 01:27:41;;;;;;;13.20;4.43;;;;;0.30;102537.00;;;;10470113;28;20275;-80
2022/02/27 01:32:43;;;;;;;15.20;5.30;;;;;0.20;102535.00;;;;10470564;28;20201;-80
2022/02/27 01:37:45;;;;;;;9.83;4.77;;;;;0.20;102535.00;;;;10485072;27;20906;-80
2022/02/27 01:42:47;;;;;;;14.47;4.57;;;;;0.00;102540.00;;;;10495479;27;20197;-80
2022/02/27 01:47:49;;;;;;;10.33;5.60;;;;;-0.30;102536.00;;;;10478763;27;20209;-80
2022/02/27 01:52:52;;;;;;;14.50;5.27;;;;;-0.50;102536.00;;;;10478102;27;20656;-80
2022/02/27 01:57:53;;;;;;;12.03;4.80;;;;;-0.70;102532.00;;;;10480072;27;20227;-81
2022/02/27 02:02:55;;;;;;;11.57;5.53;;;;;-0.80;102530.00;;;;10479498;27;20193;-81
2022/02/27 02:07:59;;;;;;;12.87;5.43;;;;;-0.90;102520.00;;;;10493812;28;20228;-82
2022/02/27 02:13:01;;;;;;;17.60;5.40;;;;;-0.90;102517.00;;;;10493959;28;20591;-82
2022/02/27 02:18:08;;;;;;;14.70;6.57;;;;;-0.80;102511.00;;;;10493199;27;20201;-82
2022/02/27 02:23:12;;;;;;;14.83;5.03;;;;;-0.70;102501.00;;;;10487567;27;20230;-82
2022/02/27 02:28:13;;;;;;;12.30;5.07;;;;;-0.60;102506.00;;;;10492425;28;20221;-81
2022/02/27 02:33:16;;;;;;;13.57;4.93;;;;;-0.60;102509.00;;;;10494409;27;20254;-81
2022/02/27 02:38:19;;;;;;;12.73;4.87;;;;;-0.80;102510.00;;;;10485537;28;20299;-81
2022/02/27 02:43:21;;;;;;;10.93;4.60;;;;;-0.80;102500.00;;;;10475353;28;20550;-80
2022/02/27 02:48:23;;;;;;;8.50;4.50;;;;;-1.00;102504.00;;;;10477230;27;20225;-80
2022/02/27 02:53:40;;;;;;;15.33;5.07;;;;;-1.10;102494.00;;;;10438771;28;20216;-82
2022/02/27 02:58:43;;;;;;;11.07;4.80;;;;;-1.10;102500.00;;;;10466665;28;20197;-81
2022/02/27 03:03:46;;;;;;;14.90;5.33;;;;;-1.20;102493.00;;;;10454047;28;20197;-81
2022/02/27 03:08:49;;;;;;;12.60;5.33;;;;;-1.30;102487.00;;;;10482691;28;20232;-81
2022/02/27 03:13:51;;;;;;;19.40;6.03;;;;;-1.30;102481.00;;;;10450945;28;20790;-81
2022/02/27 03:18:53;;;;;;;20.70;5.97;;;;;-1.30;102478.00;;;;10468870;28;20221;-81
2022/02/27 03:23:55;;;;;;;15.50;6.50;;;;;-1.20;102479.00;;;;10450580;28;20225;-81
2022/02/27 03:28:57;;;;;;;15.00;5.97;;;;;-1.20;102464.00;;;;10450904;28;20954;-81
2022/02/27 03:33:59;;;;;;;16.27;7.00;;;;;-1.30;102469.00;;;;10440069;28;20197;-80
2022/02/27 03:39:01;;;;;;;16.83;5.60;;;;;-1.30;102458.00;;;;10474084;28;20197;-81
2022/02/27 03:44:03;;;;;;;14.70;5.77;;;;;-1.30;102448.00;;;;10491233;28;20247;-81
2022/02/27 03:49:05;;;;;;;12.17;5.43;;;;;-1.40;102453.00;;;;10474479;28;20213;-81
2022/02/27 03:54:07;;;;;;;13.53;4.70;;;;;-1.40;102455.00;;;;10448540;28;20197;-81
2022/02/27 03:59:09;;;;;;;18.13;4.90;;;;;-1.40;102451.00;;;;10448960;28;20763;-80
2022/02/27 04:04:11;;;;;;;13.40;5.57;;;;;-1.40;102444.00;;;;10457292;28;20260;-80
2022/02/27 04:09:13;;;;;;;15.33;4.90;;;;;-1.40;102448.00;;;;10507717;28;20266;-81
2022/02/27 04:14:15;;;;;;;14.20;4.93;;;;;-1.40;102449.00;;;;10490945;28;20199;-81
2022/02/27 04:19:17;;;;;;;9.03;4.40;;;;;-1.40;102446.00;;;;10466527;28;20220;-81
2022/02/27 04:24:19;;;;;;;10.33;4.10;;;;;-1.40;102444.00;;;;10475295;28;20220;-80
2022/02/27 04:29:21;;;;;;;10.57;5.00;;;;;-1.50;102442.00;;;;10507405;28;20219;-80
2022/02/27 04:34:23;;;;;;;15.97;5.23;;;;;-1.60;102438.00;;;;10474259;28;20193;-80
2022/02/27 04:39:25;;;;;;;12.53;5.40;;;;;-1.60;102439.00;;;;10482508;28;20210;-80
2022/02/27 04:44:27;;;;;;;19.20;5.13;;;;;-1.70;102438.00;;;;10450157;28;20212;-80
2022/02/27 04:49:29;;;;;;;13.90;4.73;;;;;-1.80;102432.00;;;;10479327;27;20220;-80
2022/02/27 04:54:31;;;;;;;12.90;4.87;;;;;-1.80;102444.00;;;;10481351;27;20177;-80
2022/02/27 04:59:32;;;;;;;17.30;5.23;;;;;-1.90;102426.00;;;;10482194;27;20205;-80
2022/02/27 05:04:34;;;;;;;12.23;4.43;;;;;-2.00;102420.00;;;;10498052;27;20583;-80
2022/02/27 05:09:37;;;;;;;10.63;4.07;;;;;-2.00;102426.00;;;;10495738;28;20327;-81
2022/02/27 05:14:39;;;;;;;8.63;3.80;;;;;-2.00;102420.00;;;;10479347;28;20292;-80
2022/02/27 05:20:01;;;;;;;13.83;5.10;;;;;-2.00;102415.00;;;;10474318;28;20246;-81
2022/02/27 05:25:03;;;;;;;10.50;3.70;;;;;-1.90;102422.00;;;;10457236;28;20239;-81
2022/02/27 05:30:06;;;;;;;15.60;3.73;;;;;-1.80;102430.00;;;;10487471;28;20252;-80
2022/02/27 05:35:08;;;;;;;9.17;4.07;;;;;-1.80;102434.00;;;;10510762;28;20735;-81
2022/02/27 05:40:12;;;;;;;8.70;3.60;;;;;-1.80;102446.00;;;;10480371;27;20206;-81
2022/02/27 05:45:14;;;;;;;14.17;3.73;;;;;-1.90;102446.00;;;;10514060;27;20189;-80
2022/02/27 05:50:16;;;;;;;6.37;2.97;;;;;-2.00;102439.00;;;;10470160;28;20221;-81
2022/02/27 05:55:18;;;;;;;8.57;3.30;;;;;-2.10;102436.00;;;;10437481;28;20202;-80
2022/02/27 06:00:19;;;;;;;13.33;4.03;;;;;-2.10;102442.00;;;;10453992;28;20208;-81
2022/02/27 06:05:21;;;;;;;9.40;4.57;;;;;-2.10;102448.00;;;;10453622;28;20216;-81
2022/02/27 06:10:24;;;;;;;9.40;3.53;;;;;-2.10;102443.00;;;;10470265;28;20229;-81
2022/02/27 06:15:25;;;;;;;9.40;3.33;;;;;-2.10;102439.00;;;;10438519;28;20279;-81
2022/02/27 06:20:27;;;;;;;7.77;4.00;;;;;-2.10;102440.00;;;;10468610;27;20215;-81
2022/02/27 06:25:29;;;;;;;13.70;4.00;;;;;-2.00;102431.00;;;;10495023;27;20224;-81
2022/02/27 06:30:32;;;;;;;14.17;4.37;;;;;-1.90;102439.00;;;;10495172;27;20240;-81
2022/02/27 06:35:34;;;;;;;9.63;4.60;;;;;-1.90;102441.00;;;;10476424;27;20208;-81
2022/02/27 06:40:38;;;;;;;12.27;5.53;;;;;-1.90;102452.00;;;;10493732;27;20220;-81
2022/02/27 06:45:41;;;;;;;16.60;6.07;;;;;-1.80;102435.00;;;;10493628;27;20879;-81
2022/02/27 06:50:43;;;;;;;10.70;4.10;;;;;-1.70;102430.00;;;;10468947;28;20253;-81
2022/02/27 06:55:45;;;;;;;8.90;3.47;;;;;-1.60;102441.00;;;;10467596;28;20201;-82
2022/02/27 07:00:47;;;;;;;15.13;4.87;;;;;-1.40;102434.00;;;;10468998;28;20194;-81
2022/02/27 07:05:49;;;;;;;15.43;4.67;;;;;-1.30;102450.00;;;;10471563;28;20678;-81
2022/02/27 07:10:51;;;;;;;7.60;3.73;;;;;-1.20;102441.00;;;;10493249;28;20201;-81
2022/02/27 07:15:53;;;;;;;6.43;3.10;;;;;-0.90;102443.00;;;;10508715;28;20197;-81
2022/02/27 07:20:55;;;;;;;7.77;3.83;;;;;-0.50;102449.00;;;;10462314;28;20227;-81
2022/02/27 07:25:59;;;;;;;11.70;4.90;;;;;-0.20;102449.00;;;;10491425;27;20266;-81
2022/02/27 07:31:01;;;;;;;10.97;4.80;;;;;0.10;102445.00;;;;10475634;27;20629;-81
2022/02/27 07:36:03;;;;;;;12.30;4.13;;;;;0.40;102450.00;;;;10475576;28;20292;-81
2022/02/27 07:41:05;;;;;;;14.47;4.23;;;;;0.70;102461.00;;;;10491020;28;20197;-81
2022/02/27 07:46:08;;;;;;;13.70;4.40;;;;;1.00;102446.00;;;;10463931;28;20229;-80
2022/02/27 07:51:10;;;;;;;11.50;3.57;;;;;1.20;102455.00;;;;10465222;28;20198;-81
2022/02/27 07:56:12;;;;;;;11.83;3.87;;;;;1.50;102453.00;;;;10463956;27;20250;-81
2022/02/27 08:01:14;;;;;;;10.43;4.40;;;;;1.80;102458.00;;;;10449472;28;20204;-81
2022/02/27 08:06:16;;;;;;;9.17;4.00;;;;;2.00;102461.00;;;;10491648;28;20229;-81
2022/02/27 08:11:19;;;;;;;15.23;4.30;;;;;2.20;102461.00;;;;10498611;28;20215;-80
2022/02/27 08:16:21;;;;;;;9.70;4.50;;;;;2.50;102463.00;;;;10484885;28;20206;-81
2022/02/27 08:21:23;;;;;;;10.03;4.07;;;;;2.80;102458.00;;;;10459479;28;20217;-81
2022/02/27 08:26:25;;;;;;;9.67;3.87;;;;;3.10;102473.00;;;;10482071;27;20308;-80
2022/02/27 08:31:27;;;;;;;10.97;4.47;;;;;3.40;102460.00;;;;10455520;28;20201;-80
2022/02/27 08:36:29;;;;;;;9.80;3.77;;;;;4.00;102463.00;;;;10506614;27;20295;-79
2022/02/27 08:41:32;;;;;;;8.23;4.00;;;;;4.50;102467.00;;;;10461042;28;20267;-80
2022/02/27 08:46:39;;;;;;;13.07;4.07;;;;;5.00;102466.00;;;;10493082;28;20303;-80
2022/02/27 08:51:45;;;;;;;13.20;4.70;;;;;5.40;102474.00;;;;10471734;28;20201;-80
2022/02/27 08:56:47;;;;;;;11.77;3.40;;;;;5.60;102467.00;;;;10472656;28;20196;-80
2022/02/27 09:01:49;;;;;;;9.77;3.70;;;;;5.90;102471.00;;;;10487374;27;20318;-80
2022/02/27 09:06:52;;;;;;;9.97;3.23;;;;;6.20;102465.00;;;;10470403;28;20217;-80
2022/02/27 09:11:54;;;;;;;10.07;3.93;;;;;6.50;102473.00;;;;10453338;28;20223;-79
2022/02/27 09:16:56;;;;;;;8.67;4.10;;;;;6.80;102469.00;;;;10482219;27;20205;-80
2022/02/27 09:21:58;;;;;;;9.37;3.33;;;;;7.10;102468.00;;;;10437008;28;20225;-79
2022/02/27 09:27:00;;;;;;;6.40;2.27;;;;;7.40;102461.00;;;;10486542;28;20222;-79
2022/02/27 09:32:02;;;;;;;7.40;2.40;;;;;7.80;102461.00;;;;10505338;27;20236;-80
2022/02/27 09:37:04;;;;;;;8.93;2.83;;;;;8.10;102458.00;;;;10453383;28;20220;-80
2022/02/27 09:42:06;;;;;;;7.90;3.33;;;;;8.30;102446.00;;;;10469385;28;20194;-80
2022/02/27 09:47:13;;;;;;;7.13;2.97;;;;;8.60;102449.00;;;;10469003;27;20345;-80
2022/02/27 09:52:17;;;;;;;9.00;3.17;;;;;8.90;102438.00;;;;10468287;28;20296;-80
2022/02/27 09:57:21;;;;;;;4.87;2.57;;;;;9.00;102437.00;;;;10470207;28;20572;-79
2022/02/27 10:02:23;;;;;;;10.47;2.60;;;;;9.30;102442.00;;;;10484347;28;20202;-80
2022/02/27 10:07:25;;;;;;;6.33;2.60;;;;;9.60;102455.00;;;;10520079;28;20299;-79
2022/02/27 10:12:27;;;;;;;5.23;2.97;;;;;9.80;102454.00;;;;10508215;27;20204;-78
2022/02/27 10:17:34;;;;;;;4.37;2.33;;;;;10.00;102449.00;;;;10496835;27;20205;-79
2022/02/27 10:22:40;;;;;;;3.63;2.27;;;;;10.10;102429.00;;;;10467598;28;20512;-79
2022/02/27 10:27:54;;;;;;;5.00;2.50;;;;;10.40;102448.00;;;;10505017;27;20217;-79
2022/02/27 10:33:04;;;;;;;4.13;2.03;;;;;10.80;102436.00;;;;10503838;28;20197;-79
2022/02/27 10:38:17;;;;;;;5.80;2.40;;;;;11.00;102431.00;;;;10521359;27;20203;-79
2022/02/27 10:43:20;;;;;;;5.10;2.23;;;;;11.30;102433.00;;;;10483402;28;20201;-79
2022/02/27 10:48:30;;;;;;;5.20;2.23;;;;;11.60;102425.00;;;;10477682;28;20221;-79
2022/02/27 10:53:35;;;;;;;3.13;2.10;;;;;11.80;102430.00;;;;10466970;28;20607;-77
2022/02/27 10:58:42;;;;;;;2.47;1.80;;;;;12.00;102419.00;;;;10476115;27;20208;-79
2022/02/27 11:03:47;;;;;;;4.63;1.77;;;;;12.20;102413.00;;;;10470264;28;20292;-79
2022/02/27 11:08:49;;;;;;;2.20;1.43;;;;;12.30;102401.00;;;;10525363;28;20223;-80
2022/02/27 11:13:51;;;;;;;1.43;1.10;;;;;12.70;102409.00;;;;10514944;27;20200;-77
2022/02/27 11:18:53;;;;;;;3.07;1.30;;;;;12.80;102404.00;;;;10435492;28;20201;-78
2022/02/27 11:23:57;;;;;;;3.77;1.20;;;;;12.90;102414.00;;;;10487748;28;20231;-79
2022/02/27 11:29:06;;;;;;;1.47;1.00;;;;;12.90;102408.00;;;;10478083;28;20225;-78
2022/02/27 11:34:17;;;;;;;3.60;1.60;;;;;13.10;102398.00;;;;10481618;28;20560;-78
2022/02/27 11:44:40;;;;;;;1.80;1.27;;;;;13.20;102383.00;;;;10505012;27;20200;-77
2022/02/27 11:49:44;;;;;;;1.70;1.07;;;;;13.40;102374.00;;;;10496677;28;20227;-78
2022/02/27 11:54:52;;;;;;;3.20;1.30;;;;;13.20;102368.00;;;;10522281;27;20200;-78
2022/02/27 12:00:07;;;;;;;1.70;1.60;;;;;13.30;102370.00;;;;10512949;27;20213;-78
2022/02/27 12:05:20;;;;;;;2.77;1.30;;;;;13.50;102366.00;;;;10489311;28;20200;-79
2022/02/27 12:10:37;;;;;;;2.83;1.30;;;;;13.50;102365.00;;;;10489072;28;20258;-78
2022/02/27 12:15:40;;;;;;;3.57;1.53;;;;;13.80;102357.00;;;;10470852;28;20207;-79
2022/02/27 12:20:43;;;;;;;1.43;1.13;;;;;13.90;102346.00;;;;10475372;28;21146;-78
2022/02/27 12:25:46;;;;;;;2.37;1.70;;;;;13.90;102340.00;;;;10488995;28;20257;-78
2022/02/27 12:30:54;;;;;;;2.87;1.40;;;;;14.00;102350.00;;;;10462571;28;20275;-79
2022/02/27 12:36:00;;;;;;;2.90;1.50;;;;;13.90;102334.00;;;;10452850;28;20201;-78
2022/02/27 12:41:06;;;;;;;2.40;1.20;;;;;13.90;102325.00;;;;10484562;28;20743;-79
2022/02/27 12:46:08;;;;;;;2.70;1.70;;;;;14.00;102319.00;;;;10449812;28;20197;-79
2022/02/27 12:51:11;;;;;;;2.40;1.50;;;;;14.20;102320.00;;;;10477512;28;20252;-79
2022/02/27 12:56:23;;;;;;;1.57;1.23;;;;;14.40;102310.00;;;;10456025;28;20205;-79
2022/02/27 13:01:33;;;;;;;2.43;1.40;;;;;14.40;102313.00;;;;10485016;28;20679;-78
2022/02/27 13:06:39;;;;;;;1.90;1.30;;;;;14.30;102316.00;;;;10477981;28;20196;-78
2022/02/27 13:11:46;;;;;;;1.17;1.07;;;;;14.40;102313.00;;;;10479205;28;20660;-79
2022/02/27 13:16:52;;;;;;;2.00;1.30;;;;;14.40;102313.00;;;;10475847;28;20260;-79
2022/02/27 13:21:54;;;;;;;1.40;1.20;;;;;14.40;102303.00;;;;10504840;27;20723;-79
2022/02/27 13:26:57;;;;;;;3.27;1.30;;;;;14.40;102310.00;;;;10511687;27;20251;-79
2022/02/27 13:31:59;;;;;;;1.30;1.13;;;;;14.20;102295.00;;;;10485940;28;20295;-79
2022/02/27 13:37:01;;;;;;;2.55;1.38;;;;;14.10;102290.00;;;;10477035;27;20250;-78
2022/02/27 13:42:04;;;;;;;2.55;1.48;;;;;13.90;102285.00;;;;10494555;27;20196;-78
2022/02/27 13:47:08;;;;;;;3.73;1.70;;;;;13.80;102290.00;;;;10476930;27;20216;-79
2022/02/27 13:52:18;;;;;;;2.30;1.60;;;;;14.20;102279.00;;;;10485740;27;20205;-79
2022/02/27 13:57:33;;;;;;;4.87;1.90;;;;;14.80;102287.00;;;;10503609;27;20216;-79
2022/02/27 14:02:37;;;;;;;2.63;1.43;;;;;15.20;102274.00;;;;10486149;27;20204;-79
2022/02/27 14:07:42;;;;;;;3.47;1.40;;;;;15.30;102270.00;;;;10471232;28;20644;-78
2022/02/27 14:13:05;;;;;;;1.97;1.37;;;;;16.80;102229.00;;;;10457675;28;20789;-79
2022/02/27 14:18:24;;;;;;;2.37;1.63;;;;;18.20;102201.00;;;;10488188;28;20217;-78
2022/02/27 14:23:36;;;;;;;2.87;1.63;;;;;18.10;102195.00;;;;10491407;28;20690;-79
2022/02/27 14:28:50;;;;;;;3.57;1.43;;;;;19.00;102166.00;;;;10491866;27;20231;-79
2022/02/27 14:33:57;;;;;;;2.50;1.77;;;;;16.40;102230.00;;;;10489315;27;20565;-79
2022/02/27 14:38:59;;;;;;;2.93;1.50;;;;;16.60;102204.00;;;;10512317;27;20205;-78
2022/02/27 14:44:01;;;;;;;1.73;1.50;;;;;18.30;102148.00;;;;10506792;28;20235;-79
2022/02/27 14:49:05;;;;;;;3.87;1.50;;;;;18.00;102179.00;;;;10465990;28;20587;-79
2022/02/27 14:54:08;;;;;;;4.13;1.73;;;;;17.80;102160.00;;;;10469445;28;20296;-79
2022/02/27 14:59:11;;;;;;;2.63;1.53;;;;;19.10;102155.00;;;;10490691;27;20207;-79
2022/02/27 15:04:15;;;;;;;2.30;1.63;;;;;18.30;102193.00;;;;10479555;28;20192;-79
2022/02/27 15:09:17;;;;;;;4.90;1.93;;;;;17.60;102160.00;;;;10471562;27;20254;-79
2022/02/27 15:14:19;;;;;;;2.93;1.53;;;;;18.90;102161.00;;;;10473773;28;20249;-80
2022/02/27 15:19:21;;;;;;;1.93;1.50;;;;;20.10;102146.00;;;;10465467;28;20292;-80
2022/02/27 15:24:23;;;;;;;2.70;1.67;;;;;17.10;102233.00;;;;10459006;28;20248;-79
2022/02/27 15:29:25;;;;;;;2.07;1.30;;;;;18.30;102137.00;;;;10488165;28;20220;-80
2022/02/27 15:34:27;;;;;;;1.67;1.20;;;;;19.20;102146.00;;;;10455533;28;20208;-79
2022/02/27 15:39:31;;;;;;;2.03;1.40;;;;;17.00;102216.00;;;;10489507;28;20198;-79
2022/02/27 15:44:33;;;;;;;2.90;1.50;;;;;13.70;102231.00;;;;10460952;28;20197;-79
2022/02/27 15:49:35;;;;;;;1.73;1.30;;;;;12.30;102222.00;;;;10473780;28;20196;-79
2022/02/27 15:54:37;;;;;;;2.83;1.57;;;;;11.70;102226.00;;;;10486672;28;20254;-79
2022/02/27 15:59:40;;;;;;;5.17;1.87;;;;;11.50;102228.00;;;;10506319;28;20196;-80
2022/02/27 16:04:44;;;;;;;2.50;1.30;;;;;11.30;102235.00;;;;10506667;28;20436;-79
2022/02/27 16:09:46;;;;;;;2.50;1.40;;;;;11.10;102225.00;;;;10507217;28;20216;-79
2022/02/27 16:14:50;;;;;;;2.27;1.40;;;;;10.70;102234.00;;;;10458964;28;20201;-79
2022/02/27 16:19:52;;;;;;;1.73;1.40;;;;;10.40;102217.00;;;;10462173;28;20200;-79
2022/02/27 16:24:54;;;;;;;3.43;2.87;;;;;10.20;102218.00;;;;10480577;28;20220;-79
2022/02/27 16:29:56;;;;;;;3.30;1.70;;;;;10.00;102223.00;;;;10491173;28;20209;-80
2022/02/27 16:34:58;;;;;;;2.80;1.40;;;;;9.90;102232.00;;;;10488453;28;20196;-80
2022/02/27 16:40:00;;;;;;;2.83;1.50;;;;;9.80;102237.00;;;;10431863;28;20229;-80
2022/02/27 16:45:02;;;;;;;3.23;1.57;;;;;9.50;102224.00;;;;10466409;28;20237;-80
2022/02/27 16:50:05;;;;;;;1.77;1.43;;;;;9.40;102225.00;;;;10472673;28;20264;-80
2022/02/27 16:55:07;;;;;;;2.03;1.50;;;;;9.30;102222.00;;;;10480916;28;20528;-80
2022/02/27 17:00:10;;;;;;;4.00;1.93;;;;;9.10;102218.00;;;;10497382;28;20193;-80
2022/02/27 17:05:13;;;;;;;2.20;1.40;;;;;8.90;102218.00;;;;10521970;28;20197;-80
2022/02/27 17:10:15;;;;;;;3.47;1.40;;;;;8.80;102219.00;;;;10479765;28;20262;-80
2022/02/27 17:15:17;;;;;;;3.63;1.57;;;;;8.60;102216.00;;;;10512915;28;20201;-80
2022/02/27 17:20:19;;;;;;;4.50;1.80;;;;;8.40;102226.00;;;;10496030;28;20189;-80
2022/02/27 17:25:21;;;;;;;2.67;2.20;;;;;8.20;102225.00;;;;10512126;28;20209;-80
2022/02/27 17:30:23;;;;;;;3.20;1.87;;;;;8.00;102225.00;;;;10479425;28;20564;-79
2022/02/27 17:35:25;;;;;;;2.50;2.30;;;;;7.80;102240.00;;;;10495754;28;20197;-80
2022/02/27 17:40:27;;;;;;;4.90;2.77;;;;;7.60;102247.00;;;;10495486;28;20212;-81
2022/02/27 17:45:30;;;;;;;4.63;2.10;;;;;7.40;102250.00;;;;10478739;28;20258;-80
2022/02/27 17:50:32;;;;;;;3.13;2.23;;;;;7.30;102265.00;;;;10511746;28;20573;-79
2022/02/27 17:55:35;;;;;;;2.77;1.80;;;;;7.20;102273.00;;;;10478343;28;20200;-80
2022/02/27 18:00:37;;;;;;;6.03;2.20;;;;;7.00;102275.00;;;;10478526;28;20185;-80
2022/02/27 18:05:43;;;;;;;3.50;2.00;;;;;6.90;102276.00;;;;10498075;28;20196;-80
2022/02/27 18:10:46;;;;;;;3.67;1.97;;;;;6.70;102282.00;;;;10469608;28;20217;-80
2022/02/27 18:15:48;;;;;;;2.47;2.03;;;;;6.50;102294.00;;;;10452539;28;20211;-80
2022/02/27 18:20:50;;;;;;;4.77;2.00;;;;;6.30;102292.00;;;;10469144;28;20197;-80
2022/02/27 18:25:52;;;;;;;6.30;2.30;;;;;6.10;102309.00;;;;10453248;28;20217;-80
2022/02/27 18:30:54;;;;;;;4.37;2.70;;;;;5.90;102301.00;;;;10492026;28;20196;-81
2022/02/27 18:35:56;;;;;;;5.87;2.23;;;;;5.80;102304.00;;;;10455160;28;20271;-80
2022/02/27 18:40:58;;;;;;;3.37;2.63;;;;;5.60;102313.00;;;;10477309;28;20556;-80
2022/02/27 18:46:01;;;;;;;4.70;2.17;;;;;5.40;102313.00;;;;10468553;28;20197;-81
2022/02/27 18:51:04;;;;;;;4.17;2.20;;;;;5.20;102322.00;;;;10509900;28;20233;-80
2022/02/27 18:56:07;;;;;;;4.63;2.27;;;;;5.00;102320.00;;;;10526897;28;20189;-82
2022/02/27 19:01:09;;;;;;;4.30;2.57;;;;;4.80;102328.00;;;;10520661;28;20238;-80
2022/02/27 19:06:11;;;;;;;4.60;2.07;;;;;4.60;102321.00;;;;10498211;28;20203;-81
2022/02/27 19:11:13;;;;;;;4.80;3.17;;;;;4.50;102328.00;;;;10492776;28;20269;-81
2022/02/27 19:16:17;;;;;;;3.57;2.80;;;;;4.30;102336.00;;;;10511482;28;20242;-81
2022/02/27 19:21:20;;;;;;;5.97;3.10;;;;;4.40;102339.00;;;;10465427;28;20221;-81
2022/02/27 19:26:23;;;;;;;4.87;3.47;;;;;4.60;102333.00;;;;10483911;28;20193;-80
2022/02/27 19:31:25;;;;;;;5.20;3.80;;;;;4.60;102332.00;;;;10468614;28;21081;-80
2022/02/27 19:36:30;;;;;;;5.67;3.83;;;;;4.80;102335.00;;;;10463838;28;20202;-80
2022/02/27 19:41:32;;;;;;;4.93;3.50;;;;;5.00;102325.00;;;;10474077;28;20207;-81
2022/02/27 19:46:34;;;;;;;4.97;3.30;;;;;5.00;102335.00;;;;10507783;28;20200;-81
2022/02/27 19:51:38;;;;;;;9.27;4.07;;;;;4.90;102335.00;;;;10441843;28;20229;-80
2022/02/27 19:56:40;;;;;;;5.77;3.43;;;;;4.80;102340.00;;;;10491529;28;20189;-80
2022/02/27 20:01:42;;;;;;;8.10;3.77;;;;;4.70;102332.00;;;;10506759;28;20196;-80
2022/02/27 20:06:45;;;;;;;7.23;4.17;;;;;4.50;102338.00;;;;10512297;28;20192;-80
2022/02/27 20:11:47;;;;;;;9.93;5.40;;;;;4.50;102340.00;;;;10473858;28;20231;-81
2022/02/27 20:16:48;;;;;;;9.30;4.83;;;;;4.40;102343.00;;;;10472211;28;20197;-80
2022/02/27 20:21:50;;;;;;;11.03;5.70;;;;;4.30;102347.00;;;;10477628;28;20247;-81
2022/02/27 20:26:55;;;;;;;8.40;4.90;;;;;4.20;102348.00;;;;10510443;28;20231;-81
2022/02/27 20:31:59;;;;;;;6.60;4.20;;;;;4.20;102351.00;;;;10484468;28;20917;-82
2022/02/27 20:37:01;;;;;;;7.03;3.90;;;;;4.30;102348.00;;;;10459060;28;20359;-82
2022/02/27 20:42:03;;;;;;;5.70;3.83;;;;;4.30;102353.00;;;;10480836;28;20828;-82
2022/02/27 20:47:06;;;;;;;6.10;3.87;;;;;4.30;102355.00;;;;10482240;28;20185;-82
2022/02/27 20:52:08;;;;;;;6.07;3.77;;;;;4.20;102356.00;;;;10497954;28;20232;-82
2022/02/27 20:57:10;;;;;;;6.63;3.90;;;;;4.10;102356.00;;;;10513129;28;20192;-82
2022/02/27 21:02:13;;;;;;;4.90;3.30;;;;;3.90;102350.00;;;;10479507;28;20216;-82
2022/02/27 21:07:15;;;;;;;7.47;4.57;;;;;3.70;102360.00;;;;10471724;28;20198;-82
2022/02/27 21:12:17;;;;;;;5.67;3.57;;;;;3.40;102352.00;;;;10472120;28;20205;-83
2022/02/27 21:17:20;;;;;;;8.37;4.10;;;;;3.00;102356.00;;;;10470343;28;20548;-82
2022/02/27 21:22:23;;;;;;;7.63;4.57;;;;;2.70;102350.00;;;;10471013;28;20202;-82
2022/02/27 21:27:24;;;;;;;7.03;4.17;;;;;2.50;102348.00;;;;10473816;28;20201;-82
2022/02/27 21:32:27;;;;;;;6.37;4.20;;;;;2.50;102356.00;;;;10472808;28;20206;-82
2022/02/27 21:37:28;;;;;;;7.07;4.67;;;;;2.50;102355.00;;;;10464440;28;20288;-82
2022/02/27 21:42:30;;;;;;;6.47;4.33;;;;;2.40;102354.00;;;;10455176;28;20201;-82
2022/02/27 21:47:33;;;;;;;5.30;3.87;;;;;2.10;102361.00;;;;10455159;28;20239;-82
2022/02/27 21:52:36;;;;;;;6.97;4.00;;;;;1.90;102360.00;;;;10454409;28;20301;-82
2022/02/27 21:57:38;;;;;;;7.67;4.53;;;;;1.70;102367.00;;;;10463956;28;20200;-81
2022/02/27 22:02:41;;;;;;;9.90;5.00;;;;;1.60;102362.00;;;;10438893;28;20201;-82
2022/02/27 22:07:44;;;;;;;9.27;4.93;;;;;1.50;102359.00;;;;10448773;28;20692;-82
2022/02/27 22:12:46;;;;;;;8.97;5.77;;;;;1.40;102367.00;;;;10453465;28;20237;-81
2022/02/27 22:17:49;;;;;;;12.83;5.23;;;;;1.30;102365.00;;;;10464154;28;20209;-81
2022/02/27 22:22:51;;;;;;;8.27;5.27;;;;;1.20;102371.00;;;;10512098;28;20691;-81
2022/02/27 22:27:55;;;;;;;7.87;5.23;;;;;1.10;102375.00;;;;10528505;28;20560;-82
2022/02/27 22:32:56;;;;;;;10.47;5.70;;;;;0.90;102385.00;;;;10494841;28;20254;-82
2022/02/27 22:37:58;;;;;;;12.57;7.07;;;;;0.70;102389.00;;;;10469211;28;20289;-82
2022/02/27 22:43:00;;;;;;;13.03;7.10;;;;;0.70;102387.00;;;;10477330;28;20204;-82
2022/02/27 22:48:03;;;;;;;11.70;6.77;;;;;0.60;102396.00;;;;10511318;28;20196;-82
2022/02/27 22:53:05;;;;;;;9.57;5.80;;;;;0.50;102401.00;;;;10511000;28;20193;-82
2022/02/27 22:58:07;;;;;;;11.07;6.50;;;;;0.40;102399.00;;;;10485792;28;20189;-82
2022/02/27 23:03:15;;;;;;;9.50;5.67;;;;;0.30;102401.00;;;;10470646;28;20205;-82
2022/02/27 23:08:29;;;;;;;12.00;6.20;;;;;0.30;102403.00;;;;10468661;28;20216;-82
2022/02/27 23:13:33;;;;;;;9.67;6.13;;;;;0.30;102395.00;;;;10468729;28;20259;-82
2022/02/27 23:18:35;;;;;;;12.70;6.10;;;;;0.40;102412.00;;;;10453172;28;20251;-82
2022/02/27 23:23:41;;;;;;;12.23;6.37;;;;;0.40;102412.00;;;;10451159;28;20272;-82
2022/02/27 23:28:44;;;;;;;11.23;6.47;;;;;0.40;102429.00;;;;10450642;28;20252;-82
2022/02/27 23:33:46;;;;;;;9.67;5.93;;;;;0.20;102429.00;;;;10470844;28;20197;-82
2022/02/27 23:38:48;;;;;;;10.73;5.27;;;;;0.00;102426.00;;;;10451374;28;20193;-82
2022/02/27 23:43:50;;;;;;;8.23;5.10;;;;;-0.20;102438.00;;;;10436282;28;20619;-82
2022/02/27 23:48:52;;;;;;;9.00;5.73;;;;;-0.30;102423.00;;;;10514162;28;20305;-82
2022/02/27 23:53:56;;;;;;;9.53;6.23;;;;;-0.40;102423.00;;;;10456972;28;20181;-81
2022/02/27 23:58:58;;;;;;;13.93;6.97;;;;;-0.40;102425.00;;;;10436692;28;20193;-82
